Historyczne dane pomiarowe

Dodano dane terminowe – wersja testowa.

Dane z okresu 1951-2019

Wersja bazy: 1.34 [2019-03-16, lista zmian], aktualizacja planowana na 2019-04-15

Dane meteo z obszaru Polski uzyskane na podstawie danych udostępnionych przez Instytut Meteorologii i Gospodarki Wodnej – Państwowy Instytut Badawczy.

 

Wybierz Datę:    

       

TemperaturaWilgotnośćZachmurzenieWiatrCiśnienieWidzialnośćZjawiska
 Data    tng td wb rh cc ccl cl cm ch dir g1 g2 mslp ppp      
1999-08-06 00:00:00 20.1--- 11.5 15.058wxwxwx2wx--1011.8 989.4 0.0---wx
1999-08-06 01:00:00 18.8--- 11.9 14.764wxwxwx2wx--1011.5 989.0----wx
1999-08-06 02:00:00 18.0--- 11.9 14.467wxwxwxwx1wx--1011.4 988.8----wx
1999-08-06 03:00:00 18.6--- 12.8 15.169wxwxwxwxwx2wx--1011.1 988.6----wx
1999-08-06 04:00:00 18.5--- 13.0 15.270wxwxwx2wx--1011.2 988.7----wx
1999-08-06 05:00:00 18.4--- 13.5 15.473wxwxwx3wx--1011.2 988.7----wx
1999-08-06 06:00:00 18.5--- 13.4 15.472wxwxwx3wx--1011.4 988.9 0.0---wx
1999-08-06 07:00:00 19.5--- 14.8 16.674wxwxwxwx3wx--1011.6 989.1----wx
1999-08-06 08:00:00 20.8--- 14.9 17.169wxwxwxwx2wx--1012.0 989.6----wx
1999-08-06 09:00:00 22.5--- 15.1 17.863wxwxwx2wx--1011.7 989.5----wx
1999-08-06 10:00:00 24.7--- 15.1 18.655wxwxwx4wx--1011.6 989.5----wx
1999-08-06 11:00:00 25.3--- 15.1 18.853wxwxwx3wx--1011.2 989.2----wx
1999-08-06 12:00:00 25.9--- 14.4 18.649wxwxwx4wx--1010.8 988.8 0.0---wx
1999-08-06 13:00:00 26.5--- 13.8 18.546wxwxwx3wx--1010.3 988.4----wx
1999-08-06 14:00:00 27.4--- 11.7 17.838wxwxwx3wx--1009.8 988.0----wx
1999-08-06 15:00:00 27.2--- 12.7 18.241wxwxwx4wx--1009.5 987.7----wx
1999-08-06 16:00:00 26.4--- 12.4 17.842wxwxwx2wx--1009.3 987.4----wx
1999-08-06 17:00:00 26.0--- 12.7 17.844wxwxwxwx3wx--1009.2 987.3----wx
1999-08-06 18:00:00 25.3--- 12.8 17.646wxwxwx2wx--1009.0 987.0 0.0---wx
1999-08-06 19:00:00 24.5--- 12.6 17.247wxwxwx1wx--1009.4 987.4----wx
1999-08-06 20:00:00 22.8--- 12.8 16.753wxwxwx1wx--1009.7 987.5----wx
1999-08-06 21:00:00 22.6--- 12.4 16.452wxwxwx2wx--1009.6 987.4----wx
1999-08-06 22:00:00 19.8--- 12.5 15.463wxwx1wx--1009.6 987.2----wx
1999-08-06 23:00:00 20.0--- 12.1 15.360wxwx2wx--1009.4 987.0----wx

 

Źródłem pochodzenia danych jest Instytut Meteorologii i Gospodarki Wodnej – Państwowy Instytut Badawczy. Dane Instytutu Meteorologii i Gospodarki Wodnej – Państwowego Instytutu Badawczego zostały przetworzone.

Dane źródłowe można odnaleźć na stronie https://dane.imgw.pl